sensor_id;sensor_type;location;lat;lon;timestamp;temperature;humidity
28761;DHT22;15917;50.014;8.352;2024-01-30T00:01:13;4.30;99.90
28761;DHT22;15917;50.014;8.352;2024-01-30T00:03:39;4.30;99.90
28761;DHT22;15917;50.014;8.352;2024-01-30T00:06:04;4.30;99.90
28761;DHT22;15917;50.014;8.352;2024-01-30T00:08:30;4.30;99.90
28761;DHT22;15917;50.014;8.352;2024-01-30T00:10:56;4.30;99.90
28761;DHT22;15917;50.014;8.352;2024-01-30T00:13:21;4.30;99.90
28761;DHT22;15917;50.014;8.352;2024-01-30T00:15:48;4.30;99.90
28761;DHT22;15917;50.014;8.352;2024-01-30T00:18:14;4.30;99.90
28761;DHT22;15917;50.014;8.352;2024-01-30T00:20:40;4.20;99.90
28761;DHT22;15917;50.014;8.352;2024-01-30T00:23:05;4.20;99.90
28761;DHT22;15917;50.014;8.352;2024-01-30T00:25:31;4.20;99.90
28761;DHT22;15917;50.014;8.352;2024-01-30T00:27:58;4.20;99.90
28761;DHT22;15917;50.014;8.352;2024-01-30T00:30:24;4.20;99.90
28761;DHT22;15917;50.014;8.352;2024-01-30T00:32:49;4.10;99.90
28761;DHT22;15917;50.014;8.352;2024-01-30T00:35:15;4.10;99.90
28761;DHT22;15917;50.014;8.352;2024-01-30T00:37:41;4.10;99.90
28761;DHT22;15917;50.014;8.352;2024-01-30T00:40:07;4.10;99.90
28761;DHT22;15917;50.014;8.352;2024-01-30T00:42:32;4.10;99.90
28761;DHT22;15917;50.014;8.352;2024-01-30T00:44:58;4.10;99.90
28761;DHT22;15917;50.014;8.352;2024-01-30T00:47:24;4.10;99.90
28761;DHT22;15917;50.014;8.352;2024-01-30T00:49:49;4.10;99.90
28761;DHT22;15917;50.014;8.352;2024-01-30T00:52:15;4.10;99.90
28761;DHT22;15917;50.014;8.352;2024-01-30T00:54:41;4.00;99.90
28761;DHT22;15917;50.014;8.352;2024-01-30T00:57:07;4.00;99.90
28761;DHT22;15917;50.014;8.352;2024-01-30T00:59:33;4.00;99.90
28761;DHT22;15917;50.014;8.352;2024-01-30T01:01:58;4.00;99.90
28761;DHT22;15917;50.014;8.352;2024-01-30T01:04:24;4.00;99.90
28761;DHT22;15917;50.014;8.352;2024-01-30T01:06:51;3.90;99.90
28761;DHT22;15917;50.014;8.352;2024-01-30T01:09:16;3.90;99.90
28761;DHT22;15917;50.014;8.352;2024-01-30T01:11:42;3.90;99.90
28761;DHT22;15917;50.014;8.352;2024-01-30T01:14:08;4.00;99.90
28761;DHT22;15917;50.014;8.352;2024-01-30T01:16:34;3.90;99.90
28761;DHT22;15917;50.014;8.352;2024-01-30T01:18:59;3.90;99.90
28761;DHT22;15917;50.014;8.352;2024-01-30T01:21:25;3.90;99.90
28761;DHT22;15917;50.014;8.352;2024-01-30T01:23:51;3.90;99.90
28761;DHT22;15917;50.014;8.352;2024-01-30T01:26:16;3.90;99.90
28761;DHT22;15917;50.014;8.352;2024-01-30T01:28:42;3.90;99.90
28761;DHT22;15917;50.014;8.352;2024-01-30T01:31:09;3.90;99.90
28761;DHT22;15917;50.014;8.352;2024-01-30T01:33:34;3.90;99.90
28761;DHT22;15917;50.014;8.352;2024-01-30T01:36:02;3.90;99.90
28761;DHT22;15917;50.014;8.352;2024-01-30T01:38:28;3.90;99.90
28761;DHT22;15917;50.014;8.352;2024-01-30T01:40:54;3.80;99.90
28761;DHT22;15917;50.014;8.352;2024-01-30T01:43:19;3.90;99.90
28761;DHT22;15917;50.014;8.352;2024-01-30T01:45:45;3.80;99.90
28761;DHT22;15917;50.014;8.352;2024-01-30T01:48:11;3.80;99.90
28761;DHT22;15917;50.014;8.352;2024-01-30T01:50:38;3.80;99.90
28761;DHT22;15917;50.014;8.352;2024-01-30T01:53:07;3.80;99.90
28761;DHT22;15917;50.014;8.352;2024-01-30T01:55:33;3.80;99.90
28761;DHT22;15917;50.014;8.352;2024-01-30T01:57:59;3.80;99.90
28761;DHT22;15917;50.014;8.352;2024-01-30T02:00:25;3.80;99.90
28761;DHT22;15917;50.014;8.352;2024-01-30T02:02:51;3.80;99.90
28761;DHT22;15917;50.014;8.352;2024-01-30T02:05:19;3.80;99.90
28761;DHT22;15917;50.014;8.352;2024-01-30T02:07:46;3.80;99.90
28761;DHT22;15917;50.014;8.352;2024-01-30T02:10:12;3.70;99.90
28761;DHT22;15917;50.014;8.352;2024-01-30T02:12:37;3.70;99.90
28761;DHT22;15917;50.014;8.352;2024-01-30T02:15:04;3.70;99.90
28761;DHT22;15917;50.014;8.352;2024-01-30T02:17:30;3.60;99.90
28761;DHT22;15917;50.014;8.352;2024-01-30T02:19:56;3.60;99.90
28761;DHT22;15917;50.014;8.352;2024-01-30T02:22:22;3.60;99.90
28761;DHT22;15917;50.014;8.352;2024-01-30T02:24:49;3.60;99.90
28761;DHT22;15917;50.014;8.352;2024-01-30T02:27:14;3.60;99.90
28761;DHT22;15917;50.014;8.352;2024-01-30T02:29:40;3.60;99.90
28761;DHT22;15917;50.014;8.352;2024-01-30T02:32:06;3.60;99.90
28761;DHT22;15917;50.014;8.352;2024-01-30T02:34:33;3.50;99.90
28761;DHT22;15917;50.014;8.352;2024-01-30T02:36:58;3.50;99.90
28761;DHT22;15917;50.014;8.352;2024-01-30T02:39:24;3.50;99.90
28761;DHT22;15917;50.014;8.352;2024-01-30T02:41:50;3.50;99.90
28761;DHT22;15917;50.014;8.352;2024-01-30T02:44:15;3.50;99.90
28761;DHT22;15917;50.014;8.352;2024-01-30T02:46:41;3.50;99.90
28761;DHT22;15917;50.014;8.352;2024-01-30T02:49:06;3.50;99.90
28761;DHT22;15917;50.014;8.352;2024-01-30T02:51:32;3.40;99.90
28761;DHT22;15917;50.014;8.352;2024-01-30T02:53:58;3.50;99.90
28761;DHT22;15917;50.014;8.352;2024-01-30T02:56:23;3.50;99.90
28761;DHT22;15917;50.014;8.352;2024-01-30T02:58:49;3.50;99.90
28761;DHT22;15917;50.014;8.352;2024-01-30T03:01:14;3.50;99.90
28761;DHT22;15917;50.014;8.352;2024-01-30T03:03:40;3.50;99.90
28761;DHT22;15917;50.014;8.352;2024-01-30T03:06:06;3.40;99.90
28761;DHT22;15917;50.014;8.352;2024-01-30T03:08:32;3.40;99.90
28761;DHT22;15917;50.014;8.352;2024-01-30T03:11:00;3.40;99.90
28761;DHT22;15917;50.014;8.352;2024-01-30T03:13:25;3.40;99.90
28761;DHT22;15917;50.014;8.352;2024-01-30T03:15:51;3.40;99.90
28761;DHT22;15917;50.014;8.352;2024-01-30T03:18:17;3.40;99.90
28761;DHT22;15917;50.014;8.352;2024-01-30T03:20:43;3.40;99.90
28761;DHT22;15917;50.014;8.352;2024-01-30T03:23:09;3.40;99.90
28761;DHT22;15917;50.014;8.352;2024-01-30T03:25:34;3.40;99.90
28761;DHT22;15917;50.014;8.352;2024-01-30T03:28:00;3.40;99.90
28761;DHT22;15917;50.014;8.352;2024-01-30T03:30:25;3.30;99.90
28761;DHT22;15917;50.014;8.352;2024-01-30T03:32:51;3.30;99.90
28761;DHT22;15917;50.014;8.352;2024-01-30T03:35:18;3.40;99.90
28761;DHT22;15917;50.014;8.352;2024-01-30T03:37:43;3.40;99.90
28761;DHT22;15917;50.014;8.352;2024-01-30T03:40:09;3.40;99.90
28761;DHT22;15917;50.014;8.352;2024-01-30T03:42:35;3.40;99.90
28761;DHT22;15917;50.014;8.352;2024-01-30T03:45:01;3.30;99.90
28761;DHT22;15917;50.014;8.352;2024-01-30T03:47:27;3.30;99.90
28761;DHT22;15917;50.014;8.352;2024-01-30T03:49:52;3.30;99.90
28761;DHT22;15917;50.014;8.352;2024-01-30T03:52:18;3.20;99.90
28761;DHT22;15917;50.014;8.352;2024-01-30T03:54:43;3.20;99.90
28761;DHT22;15917;50.014;8.352;2024-01-30T03:57:09;3.20;99.90
28761;DHT22;15917;50.014;8.352;2024-01-30T03:59:35;3.20;99.90
28761;DHT22;15917;50.014;8.352;2024-01-30T04:02:00;3.20;99.90
28761;DHT22;15917;50.014;8.352;2024-01-30T04:04:26;3.20;99.90
28761;DHT22;15917;50.014;8.352;2024-01-30T04:06:51;3.20;99.90
28761;DHT22;15917;50.014;8.352;2024-01-30T04:09:17;3.20;99.90
28761;DHT22;15917;50.014;8.352;2024-01-30T04:11:43;3.20;99.90
28761;DHT22;15917;50.014;8.352;2024-01-30T04:14:09;3.20;99.90
28761;DHT22;15917;50.014;8.352;2024-01-30T04:16:34;3.10;99.90
28761;DHT22;15917;50.014;8.352;2024-01-30T04:19:00;3.20;99.90
28761;DHT22;15917;50.014;8.352;2024-01-30T04:21:25;3.20;99.90
28761;DHT22;15917;50.014;8.352;2024-01-30T04:23:51;3.20;99.90
28761;DHT22;15917;50.014;8.352;2024-01-30T04:26:17;3.10;99.90
28761;DHT22;15917;50.014;8.352;2024-01-30T04:28:44;3.10;99.90
28761;DHT22;15917;50.014;8.352;2024-01-30T04:31:10;3.20;99.90
28761;DHT22;15917;50.014;8.352;2024-01-30T04:33:36;3.10;99.90
28761;DHT22;15917;50.014;8.352;2024-01-30T04:36:01;3.10;99.90
28761;DHT22;15917;50.014;8.352;2024-01-30T04:38:28;3.10;99.90
28761;DHT22;15917;50.014;8.352;2024-01-30T04:40:53;3.00;99.90
28761;DHT22;15917;50.014;8.352;2024-01-30T04:43:19;3.10;99.90
28761;DHT22;15917;50.014;8.352;2024-01-30T04:45:45;3.10;99.90
28761;DHT22;15917;50.014;8.352;2024-01-30T04:48:10;3.10;99.90
28761;DHT22;15917;50.014;8.352;2024-01-30T04:50:36;3.10;99.90
28761;DHT22;15917;50.014;8.352;2024-01-30T04:53:01;3.10;99.90
28761;DHT22;15917;50.014;8.352;2024-01-30T04:55:27;3.10;99.90
28761;DHT22;15917;50.014;8.352;2024-01-30T04:57:53;3.10;99.90
28761;DHT22;15917;50.014;8.352;2024-01-30T05:00:18;3.10;99.90
28761;DHT22;15917;50.014;8.352;2024-01-30T05:02:44;3.10;99.90
28761;DHT22;15917;50.014;8.352;2024-01-30T05:05:10;3.10;99.90
28761;DHT22;15917;50.014;8.352;2024-01-30T05:07:36;3.10;99.90
28761;DHT22;15917;50.014;8.352;2024-01-30T05:10:02;3.10;99.90
28761;DHT22;15917;50.014;8.352;2024-01-30T05:12:28;3.10;99.90
28761;DHT22;15917;50.014;8.352;2024-01-30T05:14:54;3.00;99.90
28761;DHT22;15917;50.014;8.352;2024-01-30T05:17:19;3.00;99.90
28761;DHT22;15917;50.014;8.352;2024-01-30T05:19:45;3.00;99.90
28761;DHT22;15917;50.014;8.352;2024-01-30T05:22:11;3.10;99.90
28761;DHT22;15917;50.014;8.352;2024-01-30T05:24:41;3.10;99.90
28761;DHT22;15917;50.014;8.352;2024-01-30T05:27:07;3.10;99.90
28761;DHT22;15917;50.014;8.352;2024-01-30T05:29:33;3.00;99.90
28761;DHT22;15917;50.014;8.352;2024-01-30T05:31:58;3.10;99.90
28761;DHT22;15917;50.014;8.352;2024-01-30T05:34:24;3.00;99.90
28761;DHT22;15917;50.014;8.352;2024-01-30T05:36:50;3.00;99.90
28761;DHT22;15917;50.014;8.352;2024-01-30T05:39:15;3.00;99.90
28761;DHT22;15917;50.014;8.352;2024-01-30T05:41:41;3.00;99.90
28761;DHT22;15917;50.014;8.352;2024-01-30T05:44:06;3.00;99.90
28761;DHT22;15917;50.014;8.352;2024-01-30T05:46:33;3.10;99.90
28761;DHT22;15917;50.014;8.352;2024-01-30T05:48:58;4.90;99.90
28761;DHT22;15917;50.014;8.352;2024-01-30T05:51:24;5.50;99.90
28761;DHT22;15917;50.014;8.352;2024-01-30T05:53:50;5.10;99.90
28761;DHT22;15917;50.014;8.352;2024-01-30T05:56:15;4.50;99.90
28761;DHT22;15917;50.014;8.352;2024-01-30T05:58:41;4.10;99.90
28761;DHT22;15917;50.014;8.352;2024-01-30T06:01:08;3.80;99.90
28761;DHT22;15917;50.014;8.352;2024-01-30T06:03:34;3.50;99.90
28761;DHT22;15917;50.014;8.352;2024-01-30T06:06:00;3.40;99.90
28761;DHT22;15917;50.014;8.352;2024-01-30T06:08:25;3.30;99.90
28761;DHT22;15917;50.014;8.352;2024-01-30T06:10:51;3.20;99.90
28761;DHT22;15917;50.014;8.352;2024-01-30T06:13:16;3.10;99.90
28761;DHT22;15917;50.014;8.352;2024-01-30T06:15:42;3.00;99.90
28761;DHT22;15917;50.014;8.352;2024-01-30T06:18:08;3.00;99.90
28761;DHT22;15917;50.014;8.352;2024-01-30T06:20:34;2.90;99.90
28761;DHT22;15917;50.014;8.352;2024-01-30T06:22:59;2.90;99.90
28761;DHT22;15917;50.014;8.352;2024-01-30T06:25:25;2.80;99.90
28761;DHT22;15917;50.014;8.352;2024-01-30T06:27:50;2.80;99.90
28761;DHT22;15917;50.014;8.352;2024-01-30T06:30:16;2.80;99.90
28761;DHT22;15917;50.014;8.352;2024-01-30T06:32:42;2.80;99.90
28761;DHT22;15917;50.014;8.352;2024-01-30T06:35:08;2.80;99.90
28761;DHT22;15917;50.014;8.352;2024-01-30T06:37:34;2.80;99.90
28761;DHT22;15917;50.014;8.352;2024-01-30T06:39:59;2.80;99.90
28761;DHT22;15917;50.014;8.352;2024-01-30T06:42:25;2.70;99.90
28761;DHT22;15917;50.014;8.352;2024-01-30T06:44:51;2.70;99.90
28761;DHT22;15917;50.014;8.352;2024-01-30T06:47:16;2.70;99.90
28761;DHT22;15917;50.014;8.352;2024-01-30T06:49:42;2.80;99.90
28761;DHT22;15917;50.014;8.352;2024-01-30T06:52:09;2.80;99.90
28761;DHT22;15917;50.014;8.352;2024-01-30T06:54:34;2.80;99.90
28761;DHT22;15917;50.014;8.352;2024-01-30T06:57:00;2.80;99.90
28761;DHT22;15917;50.014;8.352;2024-01-30T06:59:26;2.80;99.90
28761;DHT22;15917;50.014;8.352;2024-01-30T07:01:51;2.80;99.90
28761;DHT22;15917;50.014;8.352;2024-01-30T07:04:17;2.80;99.90
28761;DHT22;15917;50.014;8.352;2024-01-30T07:06:44;2.70;99.90
28761;DHT22;15917;50.014;8.352;2024-01-30T07:09:09;2.70;99.90
28761;DHT22;15917;50.014;8.352;2024-01-30T07:11:35;2.80;99.90
28761;DHT22;15917;50.014;8.352;2024-01-30T07:14:00;2.80;99.90
28761;DHT22;15917;50.014;8.352;2024-01-30T07:16:29;2.80;99.90
28761;DHT22;15917;50.014;8.352;2024-01-30T07:18:54;2.80;99.90
28761;DHT22;15917;50.014;8.352;2024-01-30T07:21:21;2.80;99.90
28761;DHT22;15917;50.014;8.352;2024-01-30T07:23:50;2.80;99.90
28761;DHT22;15917;50.014;8.352;2024-01-30T07:26:16;2.90;99.90
28761;DHT22;15917;50.014;8.352;2024-01-30T07:28:41;2.90;99.90
28761;DHT22;15917;50.014;8.352;2024-01-30T07:31:08;2.90;99.90
28761;DHT22;15917;50.014;8.352;2024-01-30T07:33:33;2.90;99.90
28761;DHT22;15917;50.014;8.352;2024-01-30T07:35:59;2.90;99.90
28761;DHT22;15917;50.014;8.352;2024-01-30T07:38:25;3.00;99.90
28761;DHT22;15917;50.014;8.352;2024-01-30T07:40:51;3.00;99.90
28761;DHT22;15917;50.014;8.352;2024-01-30T07:43:16;3.00;99.90
28761;DHT22;15917;50.014;8.352;2024-01-30T07:45:42;2.90;99.90
28761;DHT22;15917;50.014;8.352;2024-01-30T07:48:08;2.90;99.90
28761;DHT22;15917;50.014;8.352;2024-01-30T07:50:33;3.00;99.90
28761;DHT22;15917;50.014;8.352;2024-01-30T07:53:00;3.00;99.90
28761;DHT22;15917;50.014;8.352;2024-01-30T07:55:25;3.10;99.90
28761;DHT22;15917;50.014;8.352;2024-01-30T07:57:54;3.20;99.90
28761;DHT22;15917;50.014;8.352;2024-01-30T08:00:23;3.20;99.90
28761;DHT22;15917;50.014;8.352;2024-01-30T08:02:49;3.30;99.90
28761;DHT22;15917;50.014;8.352;2024-01-30T08:05:14;3.30;99.90
28761;DHT22;15917;50.014;8.352;2024-01-30T08:07:43;3.40;99.90
28761;DHT22;15917;50.014;8.352;2024-01-30T08:10:11;3.50;99.90
28761;DHT22;15917;50.014;8.352;2024-01-30T08:12:38;3.60;99.90
28761;DHT22;15917;50.014;8.352;2024-01-30T08:15:04;3.70;99.90
28761;DHT22;15917;50.014;8.352;2024-01-30T08:17:30;3.80;99.90
28761;DHT22;15917;50.014;8.352;2024-01-30T08:19:56;3.90;99.90
28761;DHT22;15917;50.014;8.352;2024-01-30T08:22:21;4.10;99.90
28761;DHT22;15917;50.014;8.352;2024-01-30T08:24:47;4.20;99.90
28761;DHT22;15917;50.014;8.352;2024-01-30T08:27:13;4.30;99.90
28761;DHT22;15917;50.014;8.352;2024-01-30T08:29:38;4.40;99.90
28761;DHT22;15917;50.014;8.352;2024-01-30T08:32:05;4.40;99.90
28761;DHT22;15917;50.014;8.352;2024-01-30T08:34:31;4.50;99.90
28761;DHT22;15917;50.014;8.352;2024-01-30T08:36:56;4.60;99.90
28761;DHT22;15917;50.014;8.352;2024-01-30T08:39:22;4.50;99.90
28761;DHT22;15917;50.014;8.352;2024-01-30T08:41:47;4.60;99.90
28761;DHT22;15917;50.014;8.352;2024-01-30T08:44:13;4.50;99.90
28761;DHT22;15917;50.014;8.352;2024-01-30T08:46:39;4.50;99.90
28761;DHT22;15917;50.014;8.352;2024-01-30T08:49:04;4.40;99.90
28761;DHT22;15917;50.014;8.352;2024-01-30T08:51:30;4.30;99.90
28761;DHT22;15917;50.014;8.352;2024-01-30T08:53:56;4.20;99.90
28761;DHT22;15917;50.014;8.352;2024-01-30T08:56:22;4.20;99.90
28761;DHT22;15917;50.014;8.352;2024-01-30T08:58:48;4.10;99.90
28761;DHT22;15917;50.014;8.352;2024-01-30T09:01:14;4.10;99.90
28761;DHT22;15917;50.014;8.352;2024-01-30T09:03:39;4.10;99.90
28761;DHT22;15917;50.014;8.352;2024-01-30T09:06:10;4.10;99.90
28761;DHT22;15917;50.014;8.352;2024-01-30T09:08:35;4.10;99.90
28761;DHT22;15917;50.014;8.352;2024-01-30T09:11:02;4.10;99.90
28761;DHT22;15917;50.014;8.352;2024-01-30T09:13:33;4.10;99.90
28761;DHT22;15917;50.014;8.352;2024-01-30T09:15:59;4.10;99.90
28761;DHT22;15917;50.014;8.352;2024-01-30T09:18:24;4.20;99.90
28761;DHT22;15917;50.014;8.352;2024-01-30T09:20:50;4.20;99.90
28761;DHT22;15917;50.014;8.352;2024-01-30T09:23:15;4.30;99.90
28761;DHT22;15917;50.014;8.352;2024-01-30T09:25:42;4.30;99.90
28761;DHT22;15917;50.014;8.352;2024-01-30T09:28:08;4.30;99.90
28761;DHT22;15917;50.014;8.352;2024-01-30T09:30:34;4.40;99.90
28761;DHT22;15917;50.014;8.352;2024-01-30T09:32:59;4.50;99.90
28761;DHT22;15917;50.014;8.352;2024-01-30T09:35:25;4.50;99.90
28761;DHT22;15917;50.014;8.352;2024-01-30T09:37:51;4.60;99.90
28761;DHT22;15917;50.014;8.352;2024-01-30T09:40:18;4.70;99.90
28761;DHT22;15917;50.014;8.352;2024-01-30T09:42:47;4.70;99.90
28761;DHT22;15917;50.014;8.352;2024-01-30T09:45:14;4.80;99.90
28761;DHT22;15917;50.014;8.352;2024-01-30T09:47:41;4.80;99.90
28761;DHT22;15917;50.014;8.352;2024-01-30T09:50:08;4.80;99.90
28761;DHT22;15917;50.014;8.352;2024-01-30T09:52:34;4.90;99.90
28761;DHT22;15917;50.014;8.352;2024-01-30T09:55:00;4.90;99.90
28761;DHT22;15917;50.014;8.352;2024-01-30T09:57:26;4.90;99.90
28761;DHT22;15917;50.014;8.352;2024-01-30T09:59:52;4.90;99.90
28761;DHT22;15917;50.014;8.352;2024-01-30T10:02:20;4.90;99.90
28761;DHT22;15917;50.014;8.352;2024-01-30T10:04:48;4.90;99.90
28761;DHT22;15917;50.014;8.352;2024-01-30T10:07:15;4.80;99.90
28761;DHT22;15917;50.014;8.352;2024-01-30T10:09:40;4.80;99.90
28761;DHT22;15917;50.014;8.352;2024-01-30T10:12:06;4.80;99.90
28761;DHT22;15917;50.014;8.352;2024-01-30T10:14:33;4.80;99.90
28761;DHT22;15917;50.014;8.352;2024-01-30T10:16:58;4.90;99.90
28761;DHT22;15917;50.014;8.352;2024-01-30T10:19:24;4.90;99.90
28761;DHT22;15917;50.014;8.352;2024-01-30T10:21:51;4.90;99.90
28761;DHT22;15917;50.014;8.352;2024-01-30T10:24:16;4.90;99.90
28761;DHT22;15917;50.014;8.352;2024-01-30T10:26:44;5.00;99.90
28761;DHT22;15917;50.014;8.352;2024-01-30T10:29:09;5.00;99.90
28761;DHT22;15917;50.014;8.352;2024-01-30T10:31:35;5.10;99.90
28761;DHT22;15917;50.014;8.352;2024-01-30T10:34:00;5.10;99.90
28761;DHT22;15917;50.014;8.352;2024-01-30T10:36:28;5.20;99.90
28761;DHT22;15917;50.014;8.352;2024-01-30T10:38:59;5.40;99.90
28761;DHT22;15917;50.014;8.352;2024-01-30T10:41:31;5.40;99.90
28761;DHT22;15917;50.014;8.352;2024-01-30T10:44:09;5.60;99.90
28761;DHT22;15917;50.014;8.352;2024-01-30T10:46:38;5.80;99.90
28761;DHT22;15917;50.014;8.352;2024-01-30T10:49:04;5.90;99.90
28761;DHT22;15917;50.014;8.352;2024-01-30T10:51:32;6.00;99.90
28761;DHT22;15917;50.014;8.352;2024-01-30T10:53:58;6.10;99.90
28761;DHT22;15917;50.014;8.352;2024-01-30T10:56:24;6.10;99.90
28761;DHT22;15917;50.014;8.352;2024-01-30T10:58:51;6.20;99.90
28761;DHT22;15917;50.014;8.352;2024-01-30T11:01:21;6.10;99.90
28761;DHT22;15917;50.014;8.352;2024-01-30T11:03:54;6.10;99.90
28761;DHT22;15917;50.014;8.352;2024-01-30T11:06:24;6.20;99.90
28761;DHT22;15917;50.014;8.352;2024-01-30T11:09:03;6.30;99.90
28761;DHT22;15917;50.014;8.352;2024-01-30T11:11:46;6.30;99.90
28761;DHT22;15917;50.014;8.352;2024-01-30T11:14:13;6.50;99.90
28761;DHT22;15917;50.014;8.352;2024-01-30T11:16:40;6.70;99.90
28761;DHT22;15917;50.014;8.352;2024-01-30T11:19:10;7.00;99.90
28761;DHT22;15917;50.014;8.352;2024-01-30T11:21:42;7.20;99.90
28761;DHT22;15917;50.014;8.352;2024-01-30T11:24:08;7.40;99.90
28761;DHT22;15917;50.014;8.352;2024-01-30T11:26:34;7.50;99.90
28761;DHT22;15917;50.014;8.352;2024-01-30T11:29:03;7.60;99.90
28761;DHT22;15917;50.014;8.352;2024-01-30T11:31:31;7.80;99.90
28761;DHT22;15917;50.014;8.352;2024-01-30T11:33:56;7.80;99.90
28761;DHT22;15917;50.014;8.352;2024-01-30T11:36:25;7.70;99.90
28761;DHT22;15917;50.014;8.352;2024-01-30T11:38:52;7.70;99.90
28761;DHT22;15917;50.014;8.352;2024-01-30T11:41:18;7.50;99.90
28761;DHT22;15917;50.014;8.352;2024-01-30T11:43:52;7.40;99.90
28761;DHT22;15917;50.014;8.352;2024-01-30T11:46:18;7.30;99.90
28761;DHT22;15917;50.014;8.352;2024-01-30T11:48:43;7.20;99.90
28761;DHT22;15917;50.014;8.352;2024-01-30T11:51:09;7.10;99.90
28761;DHT22;15917;50.014;8.352;2024-01-30T11:53:34;7.00;99.90
28761;DHT22;15917;50.014;8.352;2024-01-30T11:56:00;6.80;99.90
28761;DHT22;15917;50.014;8.352;2024-01-30T11:58:26;6.70;99.90
28761;DHT22;15917;50.014;8.352;2024-01-30T12:00:55;6.80;99.90
28761;DHT22;15917;50.014;8.352;2024-01-30T12:03:21;7.00;99.90
28761;DHT22;15917;50.014;8.352;2024-01-30T12:05:55;7.10;99.90
28761;DHT22;15917;50.014;8.352;2024-01-30T12:08:20;7.20;99.90
28761;DHT22;15917;50.014;8.352;2024-01-30T12:10:46;7.30;99.90
28761;DHT22;15917;50.014;8.352;2024-01-30T12:13:20;7.40;99.90
28761;DHT22;15917;50.014;8.352;2024-01-30T12:15:45;7.60;99.90
28761;DHT22;15917;50.014;8.352;2024-01-30T12:18:11;7.80;99.90
28761;DHT22;15917;50.014;8.352;2024-01-30T12:20:37;8.10;99.90
28761;DHT22;15917;50.014;8.352;2024-01-30T12:23:02;8.40;99.90
28761;DHT22;15917;50.014;8.352;2024-01-30T12:25:28;8.80;99.90
28761;DHT22;15917;50.014;8.352;2024-01-30T12:27:54;9.10;99.90
28761;DHT22;15917;50.014;8.352;2024-01-30T12:30:20;9.30;99.90
28761;DHT22;15917;50.014;8.352;2024-01-30T12:32:48;9.40;99.90
28761;DHT22;15917;50.014;8.352;2024-01-30T12:35:18;9.60;99.90
28761;DHT22;15917;50.014;8.352;2024-01-30T12:37:45;9.70;99.90
28761;DHT22;15917;50.014;8.352;2024-01-30T12:40:13;9.80;99.90
28761;DHT22;15917;50.014;8.352;2024-01-30T12:42:40;10.10;99.90
28761;DHT22;15917;50.014;8.352;2024-01-30T12:45:08;10.30;99.90
28761;DHT22;15917;50.014;8.352;2024-01-30T12:47:34;10.40;99.90
28761;DHT22;15917;50.014;8.352;2024-01-30T12:50:00;10.30;99.90
28761;DHT22;15917;50.014;8.352;2024-01-30T12:52:26;10.40;99.90
28761;DHT22;15917;50.014;8.352;2024-01-30T12:54:52;10.30;99.90
28761;DHT22;15917;50.014;8.352;2024-01-30T12:57:18;10.10;99.90
28761;DHT22;15917;50.014;8.352;2024-01-30T12:59:44;10.00;99.90
28761;DHT22;15917;50.014;8.352;2024-01-30T13:02:14;10.00;99.90
28761;DHT22;15917;50.014;8.352;2024-01-30T13:04:40;9.90;99.90
28761;DHT22;15917;50.014;8.352;2024-01-30T13:07:06;9.70;99.90
28761;DHT22;15917;50.014;8.352;2024-01-30T13:09:32;9.40;99.90
28761;DHT22;15917;50.014;8.352;2024-01-30T13:11:58;9.00;99.90
28761;DHT22;15917;50.014;8.352;2024-01-30T13:14:25;8.60;99.90
28761;DHT22;15917;50.014;8.352;2024-01-30T13:16:51;8.30;99.90
28761;DHT22;15917;50.014;8.352;2024-01-30T13:19:17;8.10;99.90
28761;DHT22;15917;50.014;8.352;2024-01-30T13:21:42;8.10;99.90
28761;DHT22;15917;50.014;8.352;2024-01-30T13:24:08;7.90;99.90
28761;DHT22;15917;50.014;8.352;2024-01-30T13:26:34;7.90;99.90
28761;DHT22;15917;50.014;8.352;2024-01-30T13:28:59;8.00;99.90
28761;DHT22;15917;50.014;8.352;2024-01-30T13:31:25;8.20;99.90
28761;DHT22;15917;50.014;8.352;2024-01-30T13:33:52;8.20;99.90
28761;DHT22;15917;50.014;8.352;2024-01-30T13:36:18;8.30;99.90
28761;DHT22;15917;50.014;8.352;2024-01-30T13:38:44;8.40;99.90
28761;DHT22;15917;50.014;8.352;2024-01-30T13:41:10;8.40;99.90
28761;DHT22;15917;50.014;8.352;2024-01-30T13:43:35;8.40;99.90
28761;DHT22;15917;50.014;8.352;2024-01-30T13:46:01;8.40;99.90
28761;DHT22;15917;50.014;8.352;2024-01-30T13:48:27;8.40;99.90
28761;DHT22;15917;50.014;8.352;2024-01-30T13:50:53;8.50;99.90
28761;DHT22;15917;50.014;8.352;2024-01-30T13:53:18;8.50;99.90
28761;DHT22;15917;50.014;8.352;2024-01-30T13:55:44;8.50;99.90
28761;DHT22;15917;50.014;8.352;2024-01-30T13:58:10;8.50;99.90
28761;DHT22;15917;50.014;8.352;2024-01-30T14:00:36;8.40;99.90
28761;DHT22;15917;50.014;8.352;2024-01-30T14:03:01;8.50;99.90
28761;DHT22;15917;50.014;8.352;2024-01-30T14:05:27;8.40;99.90
28761;DHT22;15917;50.014;8.352;2024-01-30T14:07:53;8.30;99.90
28761;DHT22;15917;50.014;8.352;2024-01-30T14:10:19;8.20;99.90
28761;DHT22;15917;50.014;8.352;2024-01-30T14:12:45;8.20;99.90
28761;DHT22;15917;50.014;8.352;2024-01-30T14:15:11;8.20;99.90
28761;DHT22;15917;50.014;8.352;2024-01-30T14:17:38;8.30;99.90
28761;DHT22;15917;50.014;8.352;2024-01-30T14:20:04;8.30;99.90
28761;DHT22;15917;50.014;8.352;2024-01-30T14:22:30;8.50;99.90
28761;DHT22;15917;50.014;8.352;2024-01-30T14:24:56;9.70;99.90
28761;DHT22;15917;50.014;8.352;2024-01-30T14:27:22;10.60;99.90
28761;DHT22;15917;50.014;8.352;2024-01-30T14:29:47;10.70;99.90
28761;DHT22;15917;50.014;8.352;2024-01-30T14:32:13;10.20;99.90
28761;DHT22;15917;50.014;8.352;2024-01-30T14:34:39;9.80;99.90
28761;DHT22;15917;50.014;8.352;2024-01-30T14:37:05;9.50;99.90
28761;DHT22;15917;50.014;8.352;2024-01-30T14:39:30;9.20;99.90
28761;DHT22;15917;50.014;8.352;2024-01-30T14:41:57;8.90;99.90
28761;DHT22;15917;50.014;8.352;2024-01-30T14:44:22;8.80;99.90
28761;DHT22;15917;50.014;8.352;2024-01-30T14:46:48;8.70;99.90
28761;DHT22;15917;50.014;8.352;2024-01-30T14:49:14;8.60;99.90
28761;DHT22;15917;50.014;8.352;2024-01-30T14:51:41;8.60;99.90
28761;DHT22;15917;50.014;8.352;2024-01-30T14:54:06;8.50;99.90
28761;DHT22;15917;50.014;8.352;2024-01-30T14:56:32;8.50;99.90
28761;DHT22;15917;50.014;8.352;2024-01-30T14:58:58;8.40;99.90
28761;DHT22;15917;50.014;8.352;2024-01-30T15:01:24;8.40;99.90
28761;DHT22;15917;50.014;8.352;2024-01-30T15:03:49;8.40;99.90
28761;DHT22;15917;50.014;8.352;2024-01-30T15:06:17;8.40;99.90
28761;DHT22;15917;50.014;8.352;2024-01-30T15:08:43;8.40;99.90
28761;DHT22;15917;50.014;8.352;2024-01-30T15:11:08;8.40;99.90
28761;DHT22;15917;50.014;8.352;2024-01-30T15:13:34;8.40;99.90
28761;DHT22;15917;50.014;8.352;2024-01-30T15:15:59;8.40;99.90
28761;DHT22;15917;50.014;8.352;2024-01-30T15:18:27;8.40;99.90
28761;DHT22;15917;50.014;8.352;2024-01-30T15:20:53;8.30;99.90
28761;DHT22;15917;50.014;8.352;2024-01-30T15:23:18;8.30;99.90
28761;DHT22;15917;50.014;8.352;2024-01-30T15:25:44;8.30;99.90
28761;DHT22;15917;50.014;8.352;2024-01-30T15:28:09;8.30;99.90
28761;DHT22;15917;50.014;8.352;2024-01-30T15:30:36;8.30;99.90
28761;DHT22;15917;50.014;8.352;2024-01-30T15:33:01;8.30;99.90
28761;DHT22;15917;50.014;8.352;2024-01-30T15:35:27;8.30;99.90
28761;DHT22;15917;50.014;8.352;2024-01-30T15:37:53;8.20;99.90